Aviation Digital Data Service (ADDS)

Output produced by METARs form (1716 UTC 24 June 2019)
found at http://www.aviationweather.gov/metar/data/
 
Forecast for: NZWN (WELLINGTON INTL , NZ)
Text: TAF NZWN 241102Z 2412/2512 18018KT 9999 BKN050
Forecast period: 1200 UTC 24 June 2019 to 0000 UTC 25 June 2019
Forecast type: FROM: standard forecast or significant change
Winds: from the S (180 degrees) at 21 MPH (18 knots; 9.3 m/s)
Visibility: 6 or more miles 10+ km)
Ceiling: 5000 feet AGL
Clouds: broken clouds at 5000 feet AGL
Weather: no significant weather forecast for this period
Text: BECMG 2500/2502 18008KT
Forecast period: 0000 to 0800 UTC 25 June 2019
Forecast type: BECOMING: Conditions expected to become as follows by 0200 UTC 25 June 2019
Winds: from the S (180 degrees) at 9 MPH (8 knots; 4.1 m/s)
Visibility: 6 or more miles 10+ km)
Ceiling: 5000 feet AGL
Clouds: broken clouds at 5000 feet AGL
Weather: no significant weather forecast for this period
Text: BECMG 2508/2510 02010KT
Forecast period: 0800 to 1200 UTC 25 June 2019
Forecast type: BECOMING: Conditions expected to become as follows by 1000 UTC 25 June 2019
Winds: from the NNE (20 degrees) at 12 MPH (10 knots; 5.1 m/s)
Visibility: 6 or more miles 10+ km)
Ceiling: 5000 feet AGL
Clouds: broken clouds at 5000 feet AGL
Weather: no significant weather forecast for this period